LROD-ORADEA

Valid from:2019-07-20 00:30:00

METAR LROD 200030Z AUTO 11006KT 9999 NCD 15/13 Q1018=

Valid from:2019-07-19 20:10:00

TAF AMD LROD 192010Z 1920/2003 CNL=